sensor_id;sensor_type;location;lat;lon;timestamp;temperature;humidity
14057;DHT22;7103;54.300;10.180;2023-04-24T00:01:22;13.10;1.00
14057;DHT22;7103;54.300;10.180;2023-04-24T00:03:49;13.10;1.00
14057;DHT22;7103;54.300;10.180;2023-04-24T00:06:17;13.20;1.00
14057;DHT22;7103;54.300;10.180;2023-04-24T00:08:43;13.10;1.00
14057;DHT22;7103;54.300;10.180;2023-04-24T00:11:11;13.10;1.00
14057;DHT22;7103;54.300;10.180;2023-04-24T00:13:38;13.10;1.00
14057;DHT22;7103;54.300;10.180;2023-04-24T00:16:05;13.10;1.00
14057;DHT22;7103;54.300;10.180;2023-04-24T00:18:32;13.10;1.00
14057;DHT22;7103;54.300;10.180;2023-04-24T00:20:59;13.20;1.00
14057;DHT22;7103;54.300;10.180;2023-04-24T00:23:26;13.10;1.00
14057;DHT22;7103;54.300;10.180;2023-04-24T00:25:53;13.10;1.00
14057;DHT22;7103;54.300;10.180;2023-04-24T00:28:20;13.10;1.00
14057;DHT22;7103;54.300;10.180;2023-04-24T00:30:47;13.10;1.00
14057;DHT22;7103;54.300;10.180;2023-04-24T00:33:14;13.10;1.00
14057;DHT22;7103;54.300;10.180;2023-04-24T00:35:41;13.00;1.00
14057;DHT22;7103;54.300;10.180;2023-04-24T00:38:08;12.90;1.00
14057;DHT22;7103;54.300;10.180;2023-04-24T00:40:35;12.90;1.00
14057;DHT22;7103;54.300;10.180;2023-04-24T00:43:02;13.00;1.00
14057;DHT22;7103;54.300;10.180;2023-04-24T00:45:29;12.90;1.00
14057;DHT22;7103;54.300;10.180;2023-04-24T00:47:58;12.90;1.00
14057;DHT22;7103;54.300;10.180;2023-04-24T00:50:25;12.90;1.00
14057;DHT22;7103;54.300;10.180;2023-04-24T00:52:53;12.90;1.00
14057;DHT22;7103;54.300;10.180;2023-04-24T00:55:20;12.90;1.00
14057;DHT22;7103;54.300;10.180;2023-04-24T00:57:48;12.90;1.00
14057;DHT22;7103;54.300;10.180;2023-04-24T01:00:16;12.80;1.00
14057;DHT22;7103;54.300;10.180;2023-04-24T01:02:44;12.70;1.00
14057;DHT22;7103;54.300;10.180;2023-04-24T01:05:13;12.60;1.00
14057;DHT22;7103;54.300;10.180;2023-04-24T01:07:43;12.60;1.00
14057;DHT22;7103;54.300;10.180;2023-04-24T01:10:14;12.60;1.00
14057;DHT22;7103;54.300;10.180;2023-04-24T01:12:41;12.50;1.00
14057;DHT22;7103;54.300;10.180;2023-04-24T01:15:08;12.40;1.00
14057;DHT22;7103;54.300;10.180;2023-04-24T01:17:36;12.30;1.00
14057;DHT22;7103;54.300;10.180;2023-04-24T01:20:03;12.40;1.00
14057;DHT22;7103;54.300;10.180;2023-04-24T01:22:35;12.40;1.00
14057;DHT22;7103;54.300;10.180;2023-04-24T01:25:03;12.40;1.00
14057;DHT22;7103;54.300;10.180;2023-04-24T01:27:30;12.30;1.00
14057;DHT22;7103;54.300;10.180;2023-04-24T01:29:57;12.30;1.00
14057;DHT22;7103;54.300;10.180;2023-04-24T01:32:25;12.20;1.00
14057;DHT22;7103;54.300;10.180;2023-04-24T01:34:52;12.20;1.00
14057;DHT22;7103;54.300;10.180;2023-04-24T01:37:19;12.20;1.00
14057;DHT22;7103;54.300;10.180;2023-04-24T01:39:46;12.20;1.00
14057;DHT22;7103;54.300;10.180;2023-04-24T01:42:13;12.30;1.00
14057;DHT22;7103;54.300;10.180;2023-04-24T01:44:41;12.20;1.00
14057;DHT22;7103;54.300;10.180;2023-04-24T01:47:08;12.10;1.00
14057;DHT22;7103;54.300;10.180;2023-04-24T01:49:37;12.10;1.00
14057;DHT22;7103;54.300;10.180;2023-04-24T01:52:05;12.20;1.00
14057;DHT22;7103;54.300;10.180;2023-04-24T01:54:32;12.20;1.00
14057;DHT22;7103;54.300;10.180;2023-04-24T01:56:59;12.20;1.00
14057;DHT22;7103;54.300;10.180;2023-04-24T01:59:28;12.20;1.00
14057;DHT22;7103;54.300;10.180;2023-04-24T02:01:55;12.10;1.00
14057;DHT22;7103;54.300;10.180;2023-04-24T02:04:22;12.10;1.00
14057;DHT22;7103;54.300;10.180;2023-04-24T02:06:49;12.10;1.00
14057;DHT22;7103;54.300;10.180;2023-04-24T02:09:16;12.00;1.00
14057;DHT22;7103;54.300;10.180;2023-04-24T02:11:43;12.00;1.00
14057;DHT22;7103;54.300;10.180;2023-04-24T02:14:10;12.00;1.00
14057;DHT22;7103;54.300;10.180;2023-04-24T02:16:37;12.00;1.00
14057;DHT22;7103;54.300;10.180;2023-04-24T02:19:04;12.10;1.00
14057;DHT22;7103;54.300;10.180;2023-04-24T02:21:31;12.00;1.00
14057;DHT22;7103;54.300;10.180;2023-04-24T02:23:58;12.00;1.00
14057;DHT22;7103;54.300;10.180;2023-04-24T02:26:25;12.00;1.00
14057;DHT22;7103;54.300;10.180;2023-04-24T02:28:52;11.90;1.00
14057;DHT22;7103;54.300;10.180;2023-04-24T02:31:19;11.90;1.00
14057;DHT22;7103;54.300;10.180;2023-04-24T02:33:46;11.90;1.00
14057;DHT22;7103;54.300;10.180;2023-04-24T02:36:13;11.90;1.00
14057;DHT22;7103;54.300;10.180;2023-04-24T02:38:40;12.00;1.00
14057;DHT22;7103;54.300;10.180;2023-04-24T02:41:07;12.00;1.00
14057;DHT22;7103;54.300;10.180;2023-04-24T02:43:34;11.90;1.00
14057;DHT22;7103;54.300;10.180;2023-04-24T02:46:01;11.80;1.00
14057;DHT22;7103;54.300;10.180;2023-04-24T02:48:28;11.90;1.00
14057;DHT22;7103;54.300;10.180;2023-04-24T02:50:55;11.80;1.00
14057;DHT22;7103;54.300;10.180;2023-04-24T02:53:22;11.80;1.00
14057;DHT22;7103;54.300;10.180;2023-04-24T02:55:49;11.90;1.00
14057;DHT22;7103;54.300;10.180;2023-04-24T02:58:16;11.90;1.00
14057;DHT22;7103;54.300;10.180;2023-04-24T03:00:44;11.90;1.00
14057;DHT22;7103;54.300;10.180;2023-04-24T03:03:11;11.90;1.00
14057;DHT22;7103;54.300;10.180;2023-04-24T03:05:38;11.80;1.00
14057;DHT22;7103;54.300;10.180;2023-04-24T03:08:05;11.80;1.00
14057;DHT22;7103;54.300;10.180;2023-04-24T03:10:32;11.70;1.00
14057;DHT22;7103;54.300;10.180;2023-04-24T03:12:59;11.80;1.00
14057;DHT22;7103;54.300;10.180;2023-04-24T03:15:26;11.70;1.00
14057;DHT22;7103;54.300;10.180;2023-04-24T03:17:53;11.70;1.00
14057;DHT22;7103;54.300;10.180;2023-04-24T03:20:22;11.80;1.00
14057;DHT22;7103;54.300;10.180;2023-04-24T03:22:49;11.80;1.00
14057;DHT22;7103;54.300;10.180;2023-04-24T03:25:16;11.90;1.00
14057;DHT22;7103;54.300;10.180;2023-04-24T03:27:43;11.90;1.00
14057;DHT22;7103;54.300;10.180;2023-04-24T03:30:10;11.90;1.00
14057;DHT22;7103;54.300;10.180;2023-04-24T03:32:37;11.90;1.00
14057;DHT22;7103;54.300;10.180;2023-04-24T03:35:07;11.90;1.00
14057;DHT22;7103;54.300;10.180;2023-04-24T03:37:35;11.80;1.00
14057;DHT22;7103;54.300;10.180;2023-04-24T03:40:02;11.80;1.00
14057;DHT22;7103;54.300;10.180;2023-04-24T03:42:29;11.80;1.00
14057;DHT22;7103;54.300;10.180;2023-04-24T03:44:56;11.80;1.00
14057;DHT22;7103;54.300;10.180;2023-04-24T03:47:23;11.70;1.00
14057;DHT22;7103;54.300;10.180;2023-04-24T03:49:50;11.70;1.00
14057;DHT22;7103;54.300;10.180;2023-04-24T03:52:17;11.60;1.00
14057;DHT22;7103;54.300;10.180;2023-04-24T03:54:44;11.60;1.00
14057;DHT22;7103;54.300;10.180;2023-04-24T03:57:11;11.60;1.00
14057;DHT22;7103;54.300;10.180;2023-04-24T03:59:38;11.60;1.00
14057;DHT22;7103;54.300;10.180;2023-04-24T04:02:05;11.50;1.00
14057;DHT22;7103;54.300;10.180;2023-04-24T04:04:32;11.40;1.00
14057;DHT22;7103;54.300;10.180;2023-04-24T04:06:59;11.50;1.00
14057;DHT22;7103;54.300;10.180;2023-04-24T04:09:29;11.40;1.00
14057;DHT22;7103;54.300;10.180;2023-04-24T04:11:56;11.30;1.00
14057;DHT22;7103;54.300;10.180;2023-04-24T04:14:23;11.30;1.00
14057;DHT22;7103;54.300;10.180;2023-04-24T04:16:50;11.30;1.00
14057;DHT22;7103;54.300;10.180;2023-04-24T04:19:20;11.30;1.00
14057;DHT22;7103;54.300;10.180;2023-04-24T04:21:47;11.40;1.00
14057;DHT22;7103;54.300;10.180;2023-04-24T04:24:19;11.30;1.00
14057;DHT22;7103;54.300;10.180;2023-04-24T04:26:51;11.30;1.00
14057;DHT22;7103;54.300;10.180;2023-04-24T04:29:18;11.30;1.00
14057;DHT22;7103;54.300;10.180;2023-04-24T04:31:45;11.30;1.00
14057;DHT22;7103;54.300;10.180;2023-04-24T04:34:13;11.30;1.00
14057;DHT22;7103;54.300;10.180;2023-04-24T04:36:41;11.30;1.00
14057;DHT22;7103;54.300;10.180;2023-04-24T04:39:09;11.30;1.00
14057;DHT22;7103;54.300;10.180;2023-04-24T04:41:36;11.30;1.00
14057;DHT22;7103;54.300;10.180;2023-04-24T04:44:04;11.20;1.00
14057;DHT22;7103;54.300;10.180;2023-04-24T04:46:31;11.20;1.00
14057;DHT22;7103;54.300;10.180;2023-04-24T04:49:01;11.20;1.00
14057;DHT22;7103;54.300;10.180;2023-04-24T04:51:29;11.30;1.00
14057;DHT22;7103;54.300;10.180;2023-04-24T04:53:56;11.20;1.00
14057;DHT22;7103;54.300;10.180;2023-04-24T04:56:22;11.20;1.00
14057;DHT22;7103;54.300;10.180;2023-04-24T04:58:49;11.20;1.00
14057;DHT22;7103;54.300;10.180;2023-04-24T05:01:16;11.20;1.00
14057;DHT22;7103;54.300;10.180;2023-04-24T05:03:44;11.20;1.00
14057;DHT22;7103;54.300;10.180;2023-04-24T05:06:11;11.20;1.00
14057;DHT22;7103;54.300;10.180;2023-04-24T05:08:38;11.30;1.00
14057;DHT22;7103;54.300;10.180;2023-04-24T05:11:05;11.30;1.00
14057;DHT22;7103;54.300;10.180;2023-04-24T05:13:32;11.30;1.00
14057;DHT22;7103;54.300;10.180;2023-04-24T05:16:07;11.30;1.00
14057;DHT22;7103;54.300;10.180;2023-04-24T05:18:34;11.30;1.00
14057;DHT22;7103;54.300;10.180;2023-04-24T05:21:01;11.30;1.00
14057;DHT22;7103;54.300;10.180;2023-04-24T05:23:28;11.30;1.00
14057;DHT22;7103;54.300;10.180;2023-04-24T05:25:55;11.40;1.00
14057;DHT22;7103;54.300;10.180;2023-04-24T05:28:22;11.50;1.00
14057;DHT22;7103;54.300;10.180;2023-04-24T05:30:49;11.70;1.00
14057;DHT22;7103;54.300;10.180;2023-04-24T05:33:16;11.70;1.00
14057;DHT22;7103;54.300;10.180;2023-04-24T05:35:43;11.80;1.00
14057;DHT22;7103;54.300;10.180;2023-04-24T05:38:13;11.90;1.00
14057;DHT22;7103;54.300;10.180;2023-04-24T05:40:40;11.90;1.00
14057;DHT22;7103;54.300;10.180;2023-04-24T05:43:07;12.00;1.00
14057;DHT22;7103;54.300;10.180;2023-04-24T05:45:34;12.00;1.00
14057;DHT22;7103;54.300;10.180;2023-04-24T05:48:03;12.20;1.00
14057;DHT22;7103;54.300;10.180;2023-04-24T05:50:30;12.20;1.00
14057;DHT22;7103;54.300;10.180;2023-04-24T05:52:57;12.40;1.00
14057;DHT22;7103;54.300;10.180;2023-04-24T05:55:28;12.50;1.00
14057;DHT22;7103;54.300;10.180;2023-04-24T05:57:55;12.50;1.00
14057;DHT22;7103;54.300;10.180;2023-04-24T06:00:23;12.40;1.00
14057;DHT22;7103;54.300;10.180;2023-04-24T06:02:50;12.40;1.00
14057;DHT22;7103;54.300;10.180;2023-04-24T06:05:18;12.40;1.00
14057;DHT22;7103;54.300;10.180;2023-04-24T06:07:46;12.40;1.00
14057;DHT22;7103;54.300;10.180;2023-04-24T06:10:12;12.50;1.00
14057;DHT22;7103;54.300;10.180;2023-04-24T06:12:39;12.50;1.00
14057;DHT22;7103;54.300;10.180;2023-04-24T06:15:07;12.60;1.00
14057;DHT22;7103;54.300;10.180;2023-04-24T06:17:34;12.60;1.00
14057;DHT22;7103;54.300;10.180;2023-04-24T06:20:02;12.60;1.00
14057;DHT22;7103;54.300;10.180;2023-04-24T06:22:32;12.50;1.00
14057;DHT22;7103;54.300;10.180;2023-04-24T06:24:59;12.50;1.00
14057;DHT22;7103;54.300;10.180;2023-04-24T06:27:27;12.50;1.00
14057;DHT22;7103;54.300;10.180;2023-04-24T06:29:54;12.60;1.00
14057;DHT22;7103;54.300;10.180;2023-04-24T06:32:23;12.70;1.00
14057;DHT22;7103;54.300;10.180;2023-04-24T06:34:52;12.70;1.00
14057;DHT22;7103;54.300;10.180;2023-04-24T06:37:20;12.90;1.00
14057;DHT22;7103;54.300;10.180;2023-04-24T06:39:47;13.60;1.00
14057;DHT22;7103;54.300;10.180;2023-04-24T06:42:14;14.20;1.00
14057;DHT22;7103;54.300;10.180;2023-04-24T06:44:41;14.40;1.00
14057;DHT22;7103;54.300;10.180;2023-04-24T06:47:09;14.30;1.00
14057;DHT22;7103;54.300;10.180;2023-04-24T06:49:37;14.10;1.00
14057;DHT22;7103;54.300;10.180;2023-04-24T06:52:04;13.80;1.00
14057;DHT22;7103;54.300;10.180;2023-04-24T06:54:31;13.70;1.00
14057;DHT22;7103;54.300;10.180;2023-04-24T06:57:00;13.70;1.00
14057;DHT22;7103;54.300;10.180;2023-04-24T06:59:30;13.60;1.00
14057;DHT22;7103;54.300;10.180;2023-04-24T07:01:57;13.50;1.00
14057;DHT22;7103;54.300;10.180;2023-04-24T07:04:24;13.60;1.00
14057;DHT22;7103;54.300;10.180;2023-04-24T07:06:52;13.60;1.00
14057;DHT22;7103;54.300;10.180;2023-04-24T07:09:23;13.40;1.00
14057;DHT22;7103;54.300;10.180;2023-04-24T07:11:51;13.40;1.00
14057;DHT22;7103;54.300;10.180;2023-04-24T07:14:18;13.40;1.00
14057;DHT22;7103;54.300;10.180;2023-04-24T07:16:45;13.50;1.00
14057;DHT22;7103;54.300;10.180;2023-04-24T07:19:13;13.50;1.00
14057;DHT22;7103;54.300;10.180;2023-04-24T07:21:40;13.50;1.00
14057;DHT22;7103;54.300;10.180;2023-04-24T07:24:07;13.50;1.00
14057;DHT22;7103;54.300;10.180;2023-04-24T07:26:37;13.40;1.00
14057;DHT22;7103;54.300;10.180;2023-04-24T07:29:04;13.40;1.00
14057;DHT22;7103;54.300;10.180;2023-04-24T07:31:31;13.40;1.00
14057;DHT22;7103;54.300;10.180;2023-04-24T07:33:58;13.40;1.00
14057;DHT22;7103;54.300;10.180;2023-04-24T07:36:25;13.50;1.00
14057;DHT22;7103;54.300;10.180;2023-04-24T07:38:52;13.50;1.00
14057;DHT22;7103;54.300;10.180;2023-04-24T07:41:19;13.50;1.00
14057;DHT22;7103;54.300;10.180;2023-04-24T07:43:47;13.50;1.00
14057;DHT22;7103;54.300;10.180;2023-04-24T07:46:14;13.50;1.00
14057;DHT22;7103;54.300;10.180;2023-04-24T07:48:41;13.50;1.00
14057;DHT22;7103;54.300;10.180;2023-04-24T07:51:08;13.60;1.00
14057;DHT22;7103;54.300;10.180;2023-04-24T07:53:37;13.60;1.00
14057;DHT22;7103;54.300;10.180;2023-04-24T07:56:04;13.70;1.00
14057;DHT22;7103;54.300;10.180;2023-04-24T07:58:31;13.60;1.00
14057;DHT22;7103;54.300;10.180;2023-04-24T08:00:58;13.60;1.00
14057;DHT22;7103;54.300;10.180;2023-04-24T08:03:25;13.70;1.00
14057;DHT22;7103;54.300;10.180;2023-04-24T08:05:52;13.70;1.00
14057;DHT22;7103;54.300;10.180;2023-04-24T08:08:21;13.70;1.00
14057;DHT22;7103;54.300;10.180;2023-04-24T08:10:49;13.50;1.00
14057;DHT22;7103;54.300;10.180;2023-04-24T08:13:16;13.50;1.00
14057;DHT22;7103;54.300;10.180;2023-04-24T08:15:43;13.50;1.00
14057;DHT22;7103;54.300;10.180;2023-04-24T08:18:10;13.40;1.00
14057;DHT22;7103;54.300;10.180;2023-04-24T08:20:39;13.30;1.00
14057;DHT22;7103;54.300;10.180;2023-04-24T08:23:06;13.30;1.00
14057;DHT22;7103;54.300;10.180;2023-04-24T08:25:37;13.20;1.00
14057;DHT22;7103;54.300;10.180;2023-04-24T08:28:06;13.20;1.00
14057;DHT22;7103;54.300;10.180;2023-04-24T08:30:33;13.10;1.00
14057;DHT22;7103;54.300;10.180;2023-04-24T08:33:00;13.20;1.00
14057;DHT22;7103;54.300;10.180;2023-04-24T08:35:27;13.20;1.00
14057;DHT22;7103;54.300;10.180;2023-04-24T08:37:54;13.20;1.00
14057;DHT22;7103;54.300;10.180;2023-04-24T08:40:27;13.40;1.00
14057;DHT22;7103;54.300;10.180;2023-04-24T08:42:55;13.50;1.00
14057;DHT22;7103;54.300;10.180;2023-04-24T08:45:23;13.60;1.00
14057;DHT22;7103;54.300;10.180;2023-04-24T08:47:52;13.70;1.00
14057;DHT22;7103;54.300;10.180;2023-04-24T08:50:21;13.70;1.00
14057;DHT22;7103;54.300;10.180;2023-04-24T08:52:52;13.70;1.00
14057;DHT22;7103;54.300;10.180;2023-04-24T08:55:24;13.70;1.00
14057;DHT22;7103;54.300;10.180;2023-04-24T08:57:54;13.70;1.00
14057;DHT22;7103;54.300;10.180;2023-04-24T09:00:22;13.70;1.00
14057;DHT22;7103;54.300;10.180;2023-04-24T09:02:50;13.60;1.00
14057;DHT22;7103;54.300;10.180;2023-04-24T09:05:18;13.60;1.00
14057;DHT22;7103;54.300;10.180;2023-04-24T09:07:54;13.70;1.00
14057;DHT22;7103;54.300;10.180;2023-04-24T09:10:23;13.90;1.00
14057;DHT22;7103;54.300;10.180;2023-04-24T09:12:51;13.80;1.00
14057;DHT22;7103;54.300;10.180;2023-04-24T09:15:19;13.80;1.00
14057;DHT22;7103;54.300;10.180;2023-04-24T09:17:47;13.80;1.00
14057;DHT22;7103;54.300;10.180;2023-04-24T09:20:14;13.70;1.00
14057;DHT22;7103;54.300;10.180;2023-04-24T09:22:42;13.60;1.00
14057;DHT22;7103;54.300;10.180;2023-04-24T09:25:10;13.70;1.00
14057;DHT22;7103;54.300;10.180;2023-04-24T09:27:45;13.70;1.00
14057;DHT22;7103;54.300;10.180;2023-04-24T09:30:12;13.70;1.00
14057;DHT22;7103;54.300;10.180;2023-04-24T09:32:43;13.70;1.00
14057;DHT22;7103;54.300;10.180;2023-04-24T09:35:14;13.70;1.00
14057;DHT22;7103;54.300;10.180;2023-04-24T09:37:44;13.70;1.00
14057;DHT22;7103;54.300;10.180;2023-04-24T09:40:12;13.90;1.00
14057;DHT22;7103;54.300;10.180;2023-04-24T09:42:46;14.10;1.00
14057;DHT22;7103;54.300;10.180;2023-04-24T09:45:18;14.10;1.00
14057;DHT22;7103;54.300;10.180;2023-04-24T09:47:45;14.00;1.00
14057;DHT22;7103;54.300;10.180;2023-04-24T09:50:16;14.10;1.00
14057;DHT22;7103;54.300;10.180;2023-04-24T09:52:56;14.20;1.00
14057;DHT22;7103;54.300;10.180;2023-04-24T09:55:24;14.10;1.00
14057;DHT22;7103;54.300;10.180;2023-04-24T09:57:57;14.10;1.00
14057;DHT22;7103;54.300;10.180;2023-04-24T10:00:27;14.20;1.00
14057;DHT22;7103;54.300;10.180;2023-04-24T10:02:55;14.40;1.00
14057;DHT22;7103;54.300;10.180;2023-04-24T10:05:24;14.60;1.00
14057;DHT22;7103;54.300;10.180;2023-04-24T10:07:51;14.70;1.00
14057;DHT22;7103;54.300;10.180;2023-04-24T10:10:22;15.00;1.00
14057;DHT22;7103;54.300;10.180;2023-04-24T10:12:51;15.30;1.00
14057;DHT22;7103;54.300;10.180;2023-04-24T10:15:18;15.70;1.00
14057;DHT22;7103;54.300;10.180;2023-04-24T10:17:49;15.70;1.00
14057;DHT22;7103;54.300;10.180;2023-04-24T10:20:24;15.50;1.00
14057;DHT22;7103;54.300;10.180;2023-04-24T10:22:52;15.50;1.00
14057;DHT22;7103;54.300;10.180;2023-04-24T10:25:21;15.40;1.00
14057;DHT22;7103;54.300;10.180;2023-04-24T10:27:49;15.20;1.00
14057;DHT22;7103;54.300;10.180;2023-04-24T10:30:18;15.10;1.00
14057;DHT22;7103;54.300;10.180;2023-04-24T10:32:45;14.80;1.00
14057;DHT22;7103;54.300;10.180;2023-04-24T10:35:13;14.60;1.00
14057;DHT22;7103;54.300;10.180;2023-04-24T10:37:49;14.60;1.00
14057;DHT22;7103;54.300;10.180;2023-04-24T10:40:34;14.50;1.00
14057;DHT22;7103;54.300;10.180;2023-04-24T10:43:08;14.40;1.00
14057;DHT22;7103;54.300;10.180;2023-04-24T10:45:38;14.50;1.00
14057;DHT22;7103;54.300;10.180;2023-04-24T10:48:07;14.60;1.00
14057;DHT22;7103;54.300;10.180;2023-04-24T10:50:46;14.60;1.00
14057;DHT22;7103;54.300;10.180;2023-04-24T10:53:27;14.60;1.00
14057;DHT22;7103;54.300;10.180;2023-04-24T10:56:04;14.60;1.00
14057;DHT22;7103;54.300;10.180;2023-04-24T10:58:49;14.50;1.00
14057;DHT22;7103;54.300;10.180;2023-04-24T11:01:30;14.40;1.00
14057;DHT22;7103;54.300;10.180;2023-04-24T11:04:00;14.40;1.00
14057;DHT22;7103;54.300;10.180;2023-04-24T11:06:36;14.40;1.00
14057;DHT22;7103;54.300;10.180;2023-04-24T11:09:06;14.60;1.00
14057;DHT22;7103;54.300;10.180;2023-04-24T11:11:35;14.80;1.00
14057;DHT22;7103;54.300;10.180;2023-04-24T11:14:05;15.00;1.00
14057;DHT22;7103;54.300;10.180;2023-04-24T11:16:39;15.30;1.00
14057;DHT22;7103;54.300;10.180;2023-04-24T11:21:48;15.60;1.00
14057;DHT22;7103;54.300;10.180;2023-04-24T11:32:36;15.00;1.00
14057;DHT22;7103;54.300;10.180;2023-04-24T11:35:08;14.80;1.00
14057;DHT22;7103;54.300;10.180;2023-04-24T11:40:11;14.40;1.00
14057;DHT22;7103;54.300;10.180;2023-04-24T11:42:41;14.20;1.00
14057;DHT22;7103;54.300;10.180;2023-04-24T11:45:14;14.00;1.00
14057;DHT22;7103;54.300;10.180;2023-04-24T11:47:42;13.90;1.00
14057;DHT22;7103;54.300;10.180;2023-04-24T11:50:15;13.90;1.00
14057;DHT22;7103;54.300;10.180;2023-04-24T11:52:47;13.90;1.00
14057;DHT22;7103;54.300;10.180;2023-04-24T11:57:45;14.50;1.00
14057;DHT22;7103;54.300;10.180;2023-04-24T12:02:44;14.70;1.00
14057;DHT22;7103;54.300;10.180;2023-04-24T12:05:32;14.70;1.00
14057;DHT22;7103;54.300;10.180;2023-04-24T12:07:59;14.50;1.00
14057;DHT22;7103;54.300;10.180;2023-04-24T12:10:28;14.40;1.00
14057;DHT22;7103;54.300;10.180;2023-04-24T12:12:56;14.40;1.00
14057;DHT22;7103;54.300;10.180;2023-04-24T12:15:24;14.40;1.00
14057;DHT22;7103;54.300;10.180;2023-04-24T12:17:52;14.60;1.00
14057;DHT22;7103;54.300;10.180;2023-04-24T12:20:31;14.90;1.00
14057;DHT22;7103;54.300;10.180;2023-04-24T12:23:00;15.40;1.00
14057;DHT22;7103;54.300;10.180;2023-04-24T12:25:32;16.00;1.00
14057;DHT22;7103;54.300;10.180;2023-04-24T12:30:34;16.50;1.00
14057;DHT22;7103;54.300;10.180;2023-04-24T12:33:02;16.60;1.00
14057;DHT22;7103;54.300;10.180;2023-04-24T12:35:32;16.80;1.00
14057;DHT22;7103;54.300;10.180;2023-04-24T12:38:08;16.90;1.00
14057;DHT22;7103;54.300;10.180;2023-04-24T12:40:35;16.90;1.00
14057;DHT22;7103;54.300;10.180;2023-04-24T12:43:12;16.70;1.00
14057;DHT22;7103;54.300;10.180;2023-04-24T12:45:39;16.60;1.00
14057;DHT22;7103;54.300;10.180;2023-04-24T12:48:06;16.50;1.00
14057;DHT22;7103;54.300;10.180;2023-04-24T12:50:32;16.60;1.00
14057;DHT22;7103;54.300;10.180;2023-04-24T12:52:59;16.70;1.00
14057;DHT22;7103;54.300;10.180;2023-04-24T12:55:26;16.70;1.00
14057;DHT22;7103;54.300;10.180;2023-04-24T12:57:53;16.60;1.00
14057;DHT22;7103;54.300;10.180;2023-04-24T13:00:21;16.70;1.00
14057;DHT22;7103;54.300;10.180;2023-04-24T13:02:48;16.80;1.00
14057;DHT22;7103;54.300;10.180;2023-04-24T13:05:16;16.70;1.00
14057;DHT22;7103;54.300;10.180;2023-04-24T13:07:43;16.40;1.00
14057;DHT22;7103;54.300;10.180;2023-04-24T13:10:10;16.20;1.00
14057;DHT22;7103;54.300;10.180;2023-04-24T13:12:37;16.30;1.00
14057;DHT22;7103;54.300;10.180;2023-04-24T13:15:06;16.10;1.00
14057;DHT22;7103;54.300;10.180;2023-04-24T13:17:33;15.80;1.00
14057;DHT22;7103;54.300;10.180;2023-04-24T13:20:00;15.60;1.00
14057;DHT22;7103;54.300;10.180;2023-04-24T13:22:26;15.50;1.00
14057;DHT22;7103;54.300;10.180;2023-04-24T13:24:54;15.60;1.00
14057;DHT22;7103;54.300;10.180;2023-04-24T13:27:21;15.60;1.00
14057;DHT22;7103;54.300;10.180;2023-04-24T13:29:48;15.40;1.00
14057;DHT22;7103;54.300;10.180;2023-04-24T13:32:15;15.40;1.00
14057;DHT22;7103;54.300;10.180;2023-04-24T13:34:42;15.10;1.00
14057;DHT22;7103;54.300;10.180;2023-04-24T13:37:09;14.80;1.00
14057;DHT22;7103;54.300;10.180;2023-04-24T13:39:36;14.80;1.00
14057;DHT22;7103;54.300;10.180;2023-04-24T13:42:03;14.70;1.00
14057;DHT22;7103;54.300;10.180;2023-04-24T13:44:31;14.50;1.00
14057;DHT22;7103;54.300;10.180;2023-04-24T13:46:58;14.40;1.00
14057;DHT22;7103;54.300;10.180;2023-04-24T13:49:25;14.40;1.00
14057;DHT22;7103;54.300;10.180;2023-04-24T13:51:54;14.40;1.00
14057;DHT22;7103;54.300;10.180;2023-04-24T13:54:22;14.30;1.00
14057;DHT22;7103;54.300;10.180;2023-04-24T13:56:52;14.30;1.00
14057;DHT22;7103;54.300;10.180;2023-04-24T13:59:22;14.40;1.00
14057;DHT22;7103;54.300;10.180;2023-04-24T14:01:49;14.40;1.00
14057;DHT22;7103;54.300;10.180;2023-04-24T14:04:16;14.40;1.00
14057;DHT22;7103;54.300;10.180;2023-04-24T14:06:44;14.50;1.00
14057;DHT22;7103;54.300;10.180;2023-04-24T14:09:11;14.50;1.00
14057;DHT22;7103;54.300;10.180;2023-04-24T14:11:39;14.50;1.00
14057;DHT22;7103;54.300;10.180;2023-04-24T14:14:06;14.60;1.00
14057;DHT22;7103;54.300;10.180;2023-04-24T14:16:33;14.70;1.00
14057;DHT22;7103;54.300;10.180;2023-04-24T14:19:00;14.70;1.00
14057;DHT22;7103;54.300;10.180;2023-04-24T14:21:27;14.80;1.00
14057;DHT22;7103;54.300;10.180;2023-04-24T14:23:53;15.00;1.00
14057;DHT22;7103;54.300;10.180;2023-04-24T14:26:20;15.20;1.00
14057;DHT22;7103;54.300;10.180;2023-04-24T14:28:48;15.20;1.00
14057;DHT22;7103;54.300;10.180;2023-04-24T14:31:16;15.00;1.00
14057;DHT22;7103;54.300;10.180;2023-04-24T14:33:43;14.90;1.00
14057;DHT22;7103;54.300;10.180;2023-04-24T14:36:10;14.90;1.00
14057;DHT22;7103;54.300;10.180;2023-04-24T14:38:37;14.90;1.00
14057;DHT22;7103;54.300;10.180;2023-04-24T14:41:04;15.00;1.00
14057;DHT22;7103;54.300;10.180;2023-04-24T14:43:39;15.00;1.00
14057;DHT22;7103;54.300;10.180;2023-04-24T14:46:07;14.80;1.00
14057;DHT22;7103;54.300;10.180;2023-04-24T14:48:34;14.70;1.00
14057;DHT22;7103;54.300;10.180;2023-04-24T14:51:00;14.70;1.00
14057;DHT22;7103;54.300;10.180;2023-04-24T14:53:27;14.60;1.00
14057;DHT22;7103;54.300;10.180;2023-04-24T14:55:54;14.40;1.00
14057;DHT22;7103;54.300;10.180;2023-04-24T14:58:21;14.20;1.00
14057;DHT22;7103;54.300;10.180;2023-04-24T15:00:48;13.90;1.00
14057;DHT22;7103;54.300;10.180;2023-04-24T15:03:18;13.80;1.00
14057;DHT22;7103;54.300;10.180;2023-04-24T15:05:46;13.80;1.00
14057;DHT22;7103;54.300;10.180;2023-04-24T15:08:13;14.00;1.00
14057;DHT22;7103;54.300;10.180;2023-04-24T15:10:40;13.90;1.00
14057;DHT22;7103;54.300;10.180;2023-04-24T15:13:07;13.90;1.00
14057;DHT22;7103;54.300;10.180;2023-04-24T15:15:34;13.70;1.00
14057;DHT22;7103;54.300;10.180;2023-04-24T15:18:01;13.80;1.00
14057;DHT22;7103;54.300;10.180;2023-04-24T15:20:28;13.70;1.00
14057;DHT22;7103;54.300;10.180;2023-04-24T15:22:55;13.70;1.00
14057;DHT22;7103;54.300;10.180;2023-04-24T15:25:22;13.80;1.00
14057;DHT22;7103;54.300;10.180;2023-04-24T15:27:49;13.90;1.00
14057;DHT22;7103;54.300;10.180;2023-04-24T15:30:16;13.90;1.00
14057;DHT22;7103;54.300;10.180;2023-04-24T15:32:43;13.90;1.00
14057;DHT22;7103;54.300;10.180;2023-04-24T15:35:10;13.80;1.00
14057;DHT22;7103;54.300;10.180;2023-04-24T15:37:38;13.60;1.00
14057;DHT22;7103;54.300;10.180;2023-04-24T15:40:05;13.30;1.00
14057;DHT22;7103;54.300;10.180;2023-04-24T15:42:34;13.30;1.00
14057;DHT22;7103;54.300;10.180;2023-04-24T15:45:02;13.20;1.00
14057;DHT22;7103;54.300;10.180;2023-04-24T15:47:30;13.00;1.00
14057;DHT22;7103;54.300;10.180;2023-04-24T15:49:58;13.00;1.00
14057;DHT22;7103;54.300;10.180;2023-04-24T15:52:25;12.90;1.00
14057;DHT22;7103;54.300;10.180;2023-04-24T15:54:52;12.80;1.00
14057;DHT22;7103;54.300;10.180;2023-04-24T15:57:19;12.80;1.00
14057;DHT22;7103;54.300;10.180;2023-04-24T15:59:46;12.70;1.00
14057;DHT22;7103;54.300;10.180;2023-04-24T16:02:14;12.70;1.00
14057;DHT22;7103;54.300;10.180;2023-04-24T16:04:48;12.50;1.00
14057;DHT22;7103;54.300;10.180;2023-04-24T16:07:16;12.40;1.00
14057;DHT22;7103;54.300;10.180;2023-04-24T16:09:46;12.30;1.00
14057;DHT22;7103;54.300;10.180;2023-04-24T16:12:13;12.30;1.00